createdAt,value
2022-11-08T00:03:38.957Z,8.2
2022-11-08T00:09:00.824Z,8.2
2022-11-08T00:19:43.998Z,8.1
2022-11-08T00:25:21.068Z,8.1
2022-11-08T00:30:43.004Z,8.1
2022-11-08T00:36:19.509Z,8.1
2022-11-08T00:41:57.794Z,8.1
2022-11-08T00:47:35.442Z,8
2022-11-08T00:53:12.153Z,8.1
2022-11-08T00:59:11.723Z,8
2022-11-08T01:04:49.916Z,8
2022-11-08T01:10:11.138Z,7.9
2022-11-08T01:21:11.133Z,7.9
2022-11-08T01:26:32.892Z,7.9
2022-11-08T01:32:10.884Z,7.9
2022-11-08T01:37:48.948Z,7.9
2022-11-08T01:48:32.973Z,7.8
2022-11-08T01:53:55.375Z,7.8
2022-11-08T01:59:31.385Z,7.8
2022-11-08T02:05:09.378Z,7.8
2022-11-08T02:10:30.264Z,7.8
2022-11-08T02:16:12.544Z,7.8
2022-11-08T02:21:34.782Z,7.8
2022-11-08T02:27:12.362Z,7.8
2022-11-08T02:32:33.365Z,7.8
2022-11-08T02:38:11.192Z,7.9
2022-11-08T02:43:47.527Z,7.9
2022-11-08T02:49:27.692Z,7.9
2022-11-08T02:55:05.099Z,7.9
2022-11-08T03:00:26.116Z,7.9
2022-11-08T03:06:04.446Z,7.9
2022-11-08T03:11:11.207Z,7.9
2022-11-08T03:16:49.779Z,8
2022-11-08T03:22:31.129Z,8
2022-11-08T03:28:08.849Z,8
2022-11-08T03:33:46.121Z,8.1
2022-11-08T03:39:06.811Z,8.1
2022-11-08T03:44:28.866Z,8.1
2022-11-08T03:50:06.268Z,8.1
2022-11-08T03:55:42.667Z,8.1
2022-11-08T04:01:20.350Z,8.1
2022-11-08T04:06:42.560Z,8.1
2022-11-08T04:12:19.767Z,8.1
2022-11-08T04:18:02.017Z,8.2
2022-11-08T04:23:40.431Z,8.2
2022-11-08T04:34:24.001Z,8.3
2022-11-08T04:39:46.626Z,8.3
2022-11-08T04:50:40.261Z,8.3
2022-11-08T04:56:17.442Z,8.3
2022-11-08T05:01:29.886Z,8.3
2022-11-08T05:12:36.331Z,8.3
2022-11-08T05:23:43.728Z,8.4
2022-11-08T05:29:20.615Z,8.4
2022-11-08T05:35:01.468Z,8.4
2022-11-08T05:40:48.718Z,8.4
2022-11-08T05:46:10.254Z,8.5
2022-11-08T05:51:31.701Z,8.5
2022-11-08T05:57:09.978Z,8.6
2022-11-08T06:02:47.213Z,8.8
2022-11-08T06:08:26.788Z,9.1
2022-11-08T06:14:11.060Z,9.6
2022-11-08T06:19:48.539Z,9.9
2022-11-08T06:25:26.667Z,10.2
2022-11-08T06:31:08.426Z,10.8
2022-11-08T06:36:32.529Z,11.3
2022-11-08T06:41:58.773Z,11.6
2022-11-08T06:47:22.309Z,11.9
2022-11-08T06:53:05.207Z,12.2
2022-11-08T06:58:47.648Z,12.5
2022-11-08T07:04:26.991Z,12.8
2022-11-08T07:09:51.699Z,13.2
2022-11-08T07:15:28.689Z,13.4
2022-11-08T07:21:06.914Z,13.6
2022-11-08T07:26:44.814Z,13.8
2022-11-08T07:32:23.596Z,13.8
2022-11-08T07:37:46.194Z,13.9
2022-11-08T07:43:51.659Z,14
2022-11-08T07:49:28.101Z,14.3
2022-11-08T07:55:10.200Z,14.7
2022-11-08T08:00:47.700Z,15.3
2022-11-08T08:06:26.557Z,16.1
2022-11-08T08:12:10.497Z,16.8
2022-11-08T08:17:47.853Z,17.8
2022-11-08T08:23:11.631Z,18.6
2022-11-08T08:28:49.449Z,19.1
2022-11-08T08:35:02.399Z,19.5
2022-11-08T08:40:46.370Z,20
2022-11-08T08:46:26.307Z,20.4
2022-11-08T08:52:03.772Z,20.9
2022-11-08T08:57:40.993Z,21.3
2022-11-08T09:05:51.802Z,19.8
2022-11-08T09:11:14.908Z,19.4
2022-11-08T09:16:39.469Z,19.6
2022-11-08T09:22:02.533Z,20.3
2022-11-08T09:27:24.218Z,20.7
2022-11-08T09:33:10.997Z,20.9
2022-11-08T09:38:41.662Z,21.3
2022-11-08T09:44:04.693Z,21.6
2022-11-08T09:49:26.966Z,22.1
2022-11-08T09:55:07.157Z,22.4
2022-11-08T10:00:45.260Z,22.8
2022-11-08T10:06:29.226Z,23.6
2022-11-08T10:11:52.163Z,24.3
2022-11-08T10:17:42.461Z,25.3
2022-11-08T10:23:04.735Z,26.8
2022-11-08T10:28:45.212Z,27.9
2022-11-08T10:34:22.618Z,28.8
2022-11-08T10:40:00.752Z,29.7
2022-11-08T10:45:43.665Z,30.9
2022-11-08T10:51:23.625Z,33.1
2022-11-08T10:57:01.218Z,34.5
2022-11-08T11:02:40.952Z,36
2022-11-08T11:08:19.578Z,36.5
2022-11-08T11:13:56.413Z,35.4
2022-11-08T11:19:24.071Z,34.9
2022-11-08T11:25:01.515Z,34.9
2022-11-08T11:30:39.151Z,35.2
2022-11-08T11:36:17.521Z,35.4
2022-11-08T11:41:55.799Z,35.8
2022-11-08T11:48:03.826Z,36.3
2022-11-08T11:53:44.798Z,36.4
2022-11-08T11:59:25.558Z,36
2022-11-08T12:05:07.181Z,38
2022-11-08T12:10:30.611Z,38.9
2022-11-08T12:16:12.489Z,39.7
2022-11-08T12:27:33.136Z,41.1
2022-11-08T12:33:12.771Z,41.3
2022-11-08T12:38:49.185Z,41.9
2022-11-08T12:44:27.969Z,41.8
2022-11-08T12:50:05.578Z,42.2
2022-11-08T12:55:47.629Z,42.3
2022-11-08T13:01:27.036Z,41.6
2022-11-08T13:07:10.233Z,40.6
2022-11-08T13:12:47.191Z,40.2
2022-11-08T13:18:25.634Z,40.6
2022-11-08T13:24:10.078Z,41.3
2022-11-08T13:30:07.958Z,41.6
2022-11-08T13:35:30.405Z,41.8
2022-11-08T13:41:12.504Z,41.8
2022-11-08T13:46:49.520Z,41.7
2022-11-08T13:52:28.615Z,41.6
2022-11-08T13:58:06.926Z,41.4
2022-11-08T14:03:45.371Z,41.1
2022-11-08T14:09:30.641Z,40.8
2022-11-08T14:15:10.302Z,40.4
2022-11-08T14:20:47.094Z,40
2022-11-08T14:26:31.843Z,39.6
2022-11-08T14:32:15.782Z,39.1
2022-11-08T14:37:56.287Z,38.6
2022-11-08T14:43:34.178Z,38.1
2022-11-08T14:49:13.096Z,37.6
2022-11-08T14:54:40.812Z,37.1
2022-11-08T15:00:18.923Z,35.4
2022-11-08T15:05:56.876Z,33.5
2022-11-08T15:11:20.013Z,31.5
2022-11-08T15:17:02.695Z,29.6
2022-11-08T15:22:41.069Z,27.6
2022-11-08T15:28:19.691Z,25.9
2022-11-08T15:34:03.321Z,24.4
2022-11-08T15:39:29.707Z,23.1
2022-11-08T15:44:51.386Z,22
2022-11-08T15:50:29.503Z,21
2022-11-08T15:56:07.168Z,20.1
2022-11-08T16:01:45.173Z,19.2
2022-11-08T16:07:08.013Z,18.4
2022-11-08T16:12:50.963Z,17.7
2022-11-08T16:18:18.595Z,17.1
2022-11-08T16:24:02.319Z,16.5
2022-11-08T16:29:24.147Z,16
2022-11-08T16:35:01.530Z,15.5
2022-11-08T16:40:23.911Z,15.1
2022-11-08T16:46:19.596Z,14.7
2022-11-08T16:51:58.193Z,14.3
2022-11-08T16:58:06.546Z,13.9
2022-11-08T17:03:29.384Z,13.7
2022-11-08T17:08:57.260Z,13.4
2022-11-08T17:14:35.409Z,13.1
2022-11-08T17:20:19.866Z,12.9
2022-11-08T17:26:34.851Z,12.7
2022-11-08T17:32:12.437Z,12.5
2022-11-08T17:37:52.048Z,12.3
2022-11-08T17:43:33.162Z,12.2
2022-11-08T17:49:11.289Z,12.1
2022-11-08T17:54:52.875Z,11.9
2022-11-08T18:00:13.912Z,11.8
2022-11-08T18:05:54.042Z,11.7
2022-11-08T18:11:36.321Z,11.6
2022-11-08T18:17:02.925Z,11.4
2022-11-08T18:27:38.428Z,11.3
2022-11-08T18:33:20.944Z,11.1
2022-11-08T18:38:59.591Z,11
2022-11-08T18:44:40.581Z,10.9
2022-11-08T18:50:24.780Z,10.8
2022-11-08T18:56:02.019Z,10.7
2022-11-08T19:01:44.867Z,10.6
2022-11-08T19:06:54.683Z,10.5
2022-11-08T19:12:32.806Z,10.4
2022-11-08T19:17:54.500Z,10.3
2022-11-08T19:23:31.050Z,10.2
2022-11-08T19:29:11.148Z,10.1
2022-11-08T19:34:33.947Z,10.1
2022-11-08T19:40:16.031Z,9.9
2022-11-08T19:50:46.237Z,9.8
2022-11-08T19:55:52.090Z,9.7
2022-11-08T20:01:37.650Z,9.6
2022-11-08T20:07:00.563Z,9.5
2022-11-08T20:12:23.888Z,9.4
2022-11-08T20:17:31.962Z,9.2
2022-11-08T20:23:10.188Z,9.1
2022-11-08T20:28:32.039Z,9
2022-11-08T20:34:18.861Z,8.9
2022-11-08T20:39:46.598Z,8.8
2022-11-08T20:45:12.066Z,8.7
2022-11-08T20:51:01.991Z,8.6
2022-11-08T20:56:44.891Z,8.6
2022-11-08T21:02:43.056Z,8.5
2022-11-08T21:11:00.058Z,8.4
2022-11-08T21:16:27.155Z,8.4
2022-11-08T21:21:57.010Z,8.3
2022-11-08T21:29:48.493Z,8.1
2022-11-08T21:35:27.425Z,8.1
2022-11-08T21:41:03.964Z,8
2022-11-08T21:46:45.962Z,7.9
2022-11-08T21:52:29.303Z,7.8
2022-11-08T21:58:12.816Z,7.7
2022-11-08T22:03:20.114Z,7.6
2022-11-08T22:08:49.213Z,7.6
2022-11-08T22:14:26.236Z,7.4
2022-11-08T22:20:10.834Z,7.4
2022-11-08T22:25:17.446Z,7.3
2022-11-08T22:35:45.581Z,7.1
2022-11-08T22:41:12.398Z,7.1
2022-11-08T22:46:34.307Z,6.9
2022-11-08T22:51:59.710Z,6.9
2022-11-08T22:56:51.194Z,6.8
2022-11-08T23:01:42.489Z,6.7
2022-11-08T23:07:05.478Z,6.6
2022-11-08T23:12:12.832Z,6.6
2022-11-08T23:17:34.847Z,6.5
2022-11-08T23:22:57.254Z,6.4
2022-11-08T23:28:06.716Z,6.4
2022-11-08T23:32:57.728Z,6.4
2022-11-08T23:38:22.484Z,6.3
2022-11-08T23:43:44.581Z,6.3
2022-11-08T23:49:06.021Z,6.3
2022-11-08T23:54:12.358Z,6.2
2022-11-08T23:59:49.721Z,6.2
